createdAt,value
2018-06-04T00:00:16.585Z,1015.54
2018-06-04T00:01:16.440Z,1015.56
2018-06-04T00:02:16.383Z,1015.59
2018-06-04T00:03:16.438Z,1015.54
2018-06-04T00:04:16.533Z,1015.6
2018-06-04T00:05:16.354Z,1015.61
2018-06-04T00:06:16.466Z,1015.52
2018-06-04T00:07:16.679Z,1015.55
2018-06-04T00:08:16.628Z,1015.54
2018-06-04T00:09:16.556Z,1015.53
2018-06-04T00:10:16.369Z,1015.5
2018-06-04T00:11:16.467Z,1015.52
2018-06-04T00:12:16.441Z,1015.49
2018-06-04T00:13:16.351Z,1015.46
2018-06-04T00:14:39.640Z,1015.49
2018-06-04T00:15:16.563Z,1015.46
2018-06-04T00:16:16.359Z,1015.5
2018-06-04T00:17:16.534Z,1015.48
2018-06-04T00:18:16.613Z,1015.5
2018-06-04T00:19:16.508Z,1015.49
2018-06-04T00:20:16.499Z,1015.48
2018-06-04T00:21:16.583Z,1015.47
2018-06-04T00:22:16.674Z,1015.5
2018-06-04T00:23:16.577Z,1015.51
2018-06-04T00:24:16.518Z,1015.5
2018-06-04T00:25:16.597Z,1015.49
2018-06-04T00:26:16.647Z,1015.43
2018-06-04T00:27:16.357Z,1015.45
2018-06-04T00:28:16.405Z,1015.42
2018-06-04T00:29:16.464Z,1015.4
2018-06-04T00:30:16.733Z,1015.38
2018-06-04T00:31:16.531Z,1015.4
2018-06-04T00:32:16.581Z,1015.4
2018-06-04T00:33:16.424Z,1015.39
2018-06-04T00:34:16.505Z,1015.35
2018-06-04T00:35:16.329Z,1015.35
2018-06-04T00:36:16.385Z,1015.31
2018-06-04T00:37:16.599Z,1015.3
2018-06-04T00:38:16.654Z,1015.31
2018-06-04T00:39:16.360Z,1015.35
2018-06-04T00:40:16.313Z,1015.35
2018-06-04T00:41:16.307Z,1015.33
2018-06-04T00:42:16.500Z,1015.36
2018-06-04T00:43:16.647Z,1015.36
2018-06-04T00:44:16.458Z,1015.34
2018-06-04T00:45:16.626Z,1015.34
2018-06-04T00:46:16.362Z,1015.29
2018-06-04T00:47:16.384Z,1015.31
2018-06-04T00:48:16.434Z,1015.29
2018-06-04T00:49:16.433Z,1015.3
2018-06-04T00:50:16.377Z,1015.32
2018-06-04T00:51:16.483Z,1015.34
2018-06-04T00:52:16.258Z,1015.37
2018-06-04T00:53:16.523Z,1015.35
2018-06-04T00:54:16.685Z,1015.36
2018-06-04T00:55:16.499Z,1015.42
2018-06-04T00:56:16.389Z,1015.43
2018-06-04T00:57:16.374Z,1015.43
2018-06-04T00:58:16.392Z,1015.42
2018-06-04T00:59:16.399Z,1015.42
2018-06-04T01:00:16.421Z,1015.45
2018-06-04T01:01:16.581Z,1015.48
2018-06-04T01:02:16.741Z,1015.46
2018-06-04T01:03:16.461Z,1015.42
2018-06-04T01:04:16.688Z,1015.38
2018-06-04T01:05:16.383Z,1015.4
2018-06-04T01:06:16.284Z,1015.35
2018-06-04T01:07:16.460Z,1015.34
2018-06-04T01:08:16.539Z,1015.33
2018-06-04T01:09:16.488Z,1015.32
2018-06-04T01:10:16.691Z,1015.33
2018-06-04T01:11:16.321Z,1015.3
2018-06-04T01:12:16.388Z,1015.3
2018-06-04T01:13:16.499Z,1015.3
2018-06-04T01:14:16.472Z,1015.31
2018-06-04T01:15:39.332Z,1015.3
2018-06-04T01:16:16.502Z,1015.26
2018-06-04T01:17:16.393Z,1015.25
2018-06-04T01:18:16.482Z,1015.29
2018-06-04T01:19:16.675Z,1015.26
2018-06-04T01:20:16.534Z,1015.22
2018-06-04T01:21:16.417Z,1015.22
2018-06-04T01:22:16.491Z,1015.24
2018-06-04T01:23:16.417Z,1015.22
2018-06-04T01:24:16.653Z,1015.18
2018-06-04T01:25:16.556Z,1015.21
2018-06-04T01:26:16.233Z,1015.17
2018-06-04T01:27:16.360Z,1015.21
2018-06-04T01:28:16.498Z,1015.16
2018-06-04T01:29:16.361Z,1015.16
2018-06-04T01:30:16.474Z,1015.16
2018-06-04T01:31:16.763Z,1015.17
2018-06-04T01:32:16.363Z,1015.16
2018-06-04T01:33:16.403Z,1015.17
2018-06-04T01:34:16.554Z,1015.17
2018-06-04T01:35:16.260Z,1015.16
2018-06-04T01:36:16.289Z,1015.17
2018-06-04T01:37:16.685Z,1015.18
2018-06-04T01:38:16.432Z,1015.11
2018-06-04T01:39:16.486Z,1015.07
2018-06-04T01:40:16.455Z,1015.1
2018-06-04T01:41:16.427Z,1015.08
2018-06-04T01:42:16.410Z,1015.06
2018-06-04T01:43:16.431Z,1015.03
2018-06-04T01:44:16.347Z,1015.09
2018-06-04T01:45:16.358Z,1015.04
2018-06-04T01:46:16.478Z,1015.09
2018-06-04T01:47:16.354Z,1015.03
2018-06-04T01:48:16.471Z,1015.06
2018-06-04T01:49:16.399Z,1015.02
2018-06-04T01:50:16.399Z,1015.02
2018-06-04T01:51:16.614Z,1015.01
2018-06-04T01:52:16.419Z,1015.01
2018-06-04T01:53:16.310Z,1015.04
2018-06-04T01:54:16.524Z,1014.98
2018-06-04T01:55:16.376Z,1015
2018-06-04T01:56:16.303Z,1014.99
2018-06-04T01:57:16.471Z,1014.97
2018-06-04T01:58:16.487Z,1015.01
2018-06-04T01:59:16.467Z,1015.01
2018-06-04T02:00:16.530Z,1014.99
2018-06-04T02:01:16.390Z,1014.99
2018-06-04T02:02:16.693Z,1014.96
2018-06-04T02:03:16.369Z,1014.93
2018-06-04T02:04:16.450Z,1014.99
2018-06-04T02:05:16.652Z,1014.93
2018-06-04T02:06:16.222Z,1014.92
2018-06-04T02:07:16.517Z,1014.94
2018-06-04T02:08:16.407Z,1014.95
2018-06-04T02:09:16.423Z,1014.96
2018-06-04T02:10:16.426Z,1014.94
2018-06-04T02:11:16.316Z,1014.96
2018-06-04T02:12:16.505Z,1014.96
2018-06-04T02:13:16.460Z,1014.96
2018-06-04T02:14:16.252Z,1014.95
2018-06-04T02:15:16.294Z,1014.96
2018-06-04T02:16:16.574Z,1014.96
2018-06-04T02:17:16.441Z,1014.93
2018-06-04T02:18:16.317Z,1014.96
2018-06-04T02:19:16.493Z,1014.95
2018-06-04T02:20:16.428Z,1014.97
2018-06-04T02:21:16.354Z,1014.98
2018-06-04T02:22:16.468Z,1014.97
2018-06-04T02:23:16.477Z,1014.99
2018-06-04T02:24:16.283Z,1014.98
2018-06-04T02:25:16.354Z,1014.89
2018-06-04T02:26:16.472Z,1014.91
2018-06-04T02:27:16.674Z,1014.94
2018-06-04T02:28:16.398Z,1014.92
2018-06-04T02:29:16.563Z,1014.92
2018-06-04T02:30:16.500Z,1014.91
2018-06-04T02:31:16.338Z,1014.89
2018-06-04T02:32:16.446Z,1014.9
2018-06-04T02:33:16.479Z,1014.9
2018-06-04T02:34:16.457Z,1014.87
2018-06-04T02:35:16.286Z,1014.81
2018-06-04T02:36:16.502Z,1014.83
2018-06-04T02:37:16.323Z,1014.81
2018-06-04T02:38:16.384Z,1014.8
2018-06-04T02:39:16.382Z,1014.83
2018-06-04T02:40:16.396Z,1014.8
2018-06-04T02:41:16.631Z,1014.78
2018-06-04T02:42:16.501Z,1014.8
2018-06-04T02:43:16.438Z,1014.76
2018-06-04T02:44:16.440Z,1014.8
2018-06-04T02:45:16.723Z,1014.75
2018-06-04T02:46:16.323Z,1014.76
2018-06-04T02:47:16.412Z,1014.76
2018-06-04T02:48:16.507Z,1014.73
2018-06-04T02:49:16.531Z,1014.72
2018-06-04T02:50:16.493Z,1014.77
2018-06-04T02:51:16.504Z,1014.72
2018-06-04T02:52:16.451Z,1014.72
2018-06-04T02:53:16.658Z,1014.71
2018-06-04T02:54:16.461Z,1014.67
2018-06-04T02:55:16.315Z,1014.72
2018-06-04T02:56:16.432Z,1014.71
2018-06-04T02:57:16.345Z,1014.7
2018-06-04T02:58:16.694Z,1014.67
2018-06-04T02:59:16.421Z,1014.72
2018-06-04T03:00:16.455Z,1014.68
2018-06-04T03:01:16.278Z,1014.73
2018-06-04T03:02:16.256Z,1014.75
2018-06-04T03:03:16.577Z,1014.75
2018-06-04T03:04:16.361Z,1014.76
2018-06-04T03:05:16.336Z,1014.77
2018-06-04T03:06:16.364Z,1014.73
2018-06-04T03:07:16.531Z,1014.75
2018-06-04T03:08:16.433Z,1014.81
2018-06-04T03:09:16.444Z,1014.83
2018-06-04T03:10:16.385Z,1014.79
2018-06-04T03:11:16.435Z,1014.81
2018-06-04T03:12:16.288Z,1014.84
2018-06-04T03:13:16.396Z,1014.84
2018-06-04T03:14:16.367Z,1014.81
2018-06-04T03:15:16.254Z,1014.81
2018-06-04T03:16:16.505Z,1014.84
2018-06-04T03:17:16.384Z,1014.81
2018-06-04T03:18:16.341Z,1014.84
2018-06-04T03:19:16.688Z,1014.78
2018-06-04T03:20:16.405Z,1014.8
2018-06-04T03:21:16.680Z,1014.76
2018-06-04T03:22:16.511Z,1014.74
2018-06-04T03:23:16.553Z,1014.75
2018-06-04T03:24:16.309Z,1014.75
2018-06-04T03:25:16.567Z,1014.75
2018-06-04T03:26:16.339Z,1014.72
2018-06-04T03:27:16.411Z,1014.72
2018-06-04T03:28:16.437Z,1014.72
2018-06-04T03:29:16.578Z,1014.72
2018-06-04T03:30:16.488Z,1014.73
2018-06-04T03:31:16.420Z,1014.73
2018-06-04T03:32:16.334Z,1014.74
2018-06-04T03:33:16.547Z,1014.73
2018-06-04T03:34:16.361Z,1014.72
2018-06-04T03:35:16.323Z,1014.69
2018-06-04T03:36:16.633Z,1014.69
2018-06-04T03:37:16.235Z,1014.71
2018-06-04T03:38:16.514Z,1014.71
2018-06-04T03:39:16.444Z,1014.74
2018-06-04T03:40:16.340Z,1014.71
2018-06-04T03:41:16.497Z,1014.71
2018-06-04T03:42:16.488Z,1014.73
2018-06-04T03:43:16.245Z,1014.77
2018-06-04T03:44:16.339Z,1014.72
2018-06-04T03:45:16.487Z,1014.73
2018-06-04T03:46:16.394Z,1014.75
2018-06-04T03:47:16.437Z,1014.78
2018-06-04T03:48:16.471Z,1014.78
2018-06-04T03:49:16.383Z,1014.78
2018-06-04T03:50:16.416Z,1014.79
2018-06-04T03:51:16.503Z,1014.78
2018-06-04T03:52:16.484Z,1014.83
2018-06-04T03:53:16.232Z,1014.82
2018-06-04T03:54:16.397Z,1014.83
2018-06-04T03:55:16.296Z,1014.83
2018-06-04T03:56:16.337Z,1014.91
2018-06-04T03:57:16.609Z,1014.87
2018-06-04T03:58:16.415Z,1014.84
2018-06-04T03:59:16.341Z,1014.88
2018-06-04T04:00:16.430Z,1014.83
2018-06-04T04:01:16.414Z,1014.85
2018-06-04T04:02:16.304Z,1014.84
2018-06-04T04:03:16.443Z,1014.8
2018-06-04T04:04:16.515Z,1014.87
2018-06-04T04:05:16.323Z,1014.89
2018-06-04T04:06:16.532Z,1014.85
2018-06-04T04:07:16.475Z,1014.85
2018-06-04T04:08:16.619Z,1014.86
2018-06-04T04:09:16.461Z,1014.84
2018-06-04T04:10:16.292Z,1014.89
2018-06-04T04:11:16.361Z,1014.9
2018-06-04T04:12:16.501Z,1014.9
2018-06-04T04:13:39.276Z,1014.87
2018-06-04T04:14:16.482Z,1014.88
2018-06-04T04:15:16.320Z,1014.89
2018-06-04T04:16:16.436Z,1014.87
2018-06-04T04:17:16.368Z,1014.89
2018-06-04T04:18:16.373Z,1014.9
2018-06-04T04:19:16.544Z,1014.93
2018-06-04T04:20:16.406Z,1014.88
2018-06-04T04:21:16.358Z,1014.87
2018-06-04T04:22:16.515Z,1014.92
2018-06-04T04:23:16.518Z,1014.91
2018-06-04T04:24:16.416Z,1014.91
2018-06-04T04:25:16.354Z,1014.88
2018-06-04T04:26:16.448Z,1014.89
2018-06-04T04:27:16.240Z,1014.9
2018-06-04T04:28:16.376Z,1014.92
2018-06-04T04:29:16.523Z,1014.89
2018-06-04T04:30:16.378Z,1014.94
2018-06-04T04:31:16.477Z,1014.89
2018-06-04T04:32:16.320Z,1014.89
2018-06-04T04:33:16.372Z,1014.91
2018-06-04T04:34:16.410Z,1014.92
2018-06-04T04:35:16.360Z,1014.9
2018-06-04T04:36:16.354Z,1014.94
2018-06-04T04:37:16.451Z,1014.94
2018-06-04T04:38:16.509Z,1014.89
2018-06-04T04:39:16.494Z,1014.94
2018-06-04T04:40:16.518Z,1014.96
2018-06-04T04:41:16.287Z,1014.99
2018-06-04T04:42:16.468Z,1014.96
2018-06-04T04:43:16.284Z,1014.97
2018-06-04T04:44:16.359Z,1015.03
2018-06-04T04:45:16.595Z,1014.99
2018-06-04T04:46:16.485Z,1015.01
2018-06-04T04:47:16.499Z,1015.05
2018-06-04T04:48:16.487Z,1015.02
2018-06-04T04:49:16.245Z,1015.05
2018-06-04T04:50:16.518Z,1015.01
2018-06-04T04:51:16.399Z,1015.07
2018-06-04T04:52:16.320Z,1015.05
2018-06-04T04:53:16.373Z,1015.01
2018-06-04T04:54:16.290Z,1015.05
2018-06-04T04:55:16.543Z,1015.04
2018-06-04T04:56:16.458Z,1015.03
2018-06-04T04:57:16.380Z,1015.04
2018-06-04T04:58:16.475Z,1015.05
2018-06-04T04:59:16.444Z,1015.04
2018-06-04T05:00:16.527Z,1015.03
2018-06-04T05:01:16.428Z,1015
2018-06-04T05:02:16.370Z,1015.01
2018-06-04T05:03:16.368Z,1015.03
2018-06-04T05:04:16.391Z,1015.01
2018-06-04T05:05:16.463Z,1015.04
2018-06-04T05:06:16.359Z,1015.02
2018-06-04T05:07:16.445Z,1015.01
2018-06-04T05:08:16.263Z,1015
2018-06-04T05:09:16.250Z,1014.99
2018-06-04T05:10:16.402Z,1015.04
2018-06-04T05:11:16.550Z,1015.07
2018-06-04T05:12:16.747Z,1015.06
2018-06-04T05:13:16.283Z,1015.07
2018-06-04T05:15:16.324Z,1015.11
2018-06-04T05:16:16.366Z,1015.1
2018-06-04T05:17:16.271Z,1015.07
2018-06-04T05:18:16.274Z,1015.09
2018-06-04T05:19:16.450Z,1015.04
2018-06-04T05:20:16.375Z,1015.07
2018-06-04T05:21:16.269Z,1015.06
2018-06-04T05:22:16.378Z,1015.04
2018-06-04T05:23:16.308Z,1015.03
2018-06-04T05:24:16.490Z,1015.06
2018-06-04T05:25:26.319Z,1015.08
2018-06-04T05:26:16.486Z,1015.1
2018-06-04T05:27:16.465Z,1015.06
2018-06-04T05:28:16.261Z,1015.12
2018-06-04T05:30:16.327Z,1015.13
2018-06-04T05:31:16.491Z,1015.15
2018-06-04T05:32:16.419Z,1015.1
2018-06-04T05:33:16.286Z,1015.14
2018-06-04T05:34:16.365Z,1015.11
2018-06-04T05:35:16.396Z,1015.06
2018-06-04T05:36:16.268Z,1015.07
2018-06-04T05:37:16.275Z,1015.08
2018-06-04T05:38:16.534Z,1015.11
2018-06-04T05:39:16.332Z,1015.08
2018-06-04T05:40:16.534Z,1015.07
2018-06-04T05:42:16.348Z,1015.06
2018-06-04T05:43:16.339Z,1015.05
2018-06-04T05:44:16.483Z,1015.02
2018-06-04T05:45:16.365Z,1014.99
2018-06-04T05:47:16.436Z,1014.97
2018-06-04T05:48:16.256Z,1015.03
2018-06-04T05:49:16.234Z,1015.02
2018-06-04T05:50:16.228Z,1014.96
2018-06-04T05:51:16.450Z,1014.96
2018-06-04T05:52:16.451Z,1015.03
2018-06-04T05:53:16.453Z,1015.04
2018-06-04T05:54:16.311Z,1015.03
2018-06-04T05:55:16.424Z,1015
2018-06-04T05:56:16.638Z,1015.03
2018-06-04T05:57:16.359Z,1015.02
2018-06-04T05:58:16.391Z,1014.98
2018-06-04T05:59:16.510Z,1015.01
2018-06-04T06:00:16.392Z,1014.98
2018-06-04T06:01:48.327Z,1014.98
2018-06-04T06:02:16.445Z,1014.96
2018-06-04T06:04:16.288Z,1014.99
2018-06-04T06:05:16.282Z,1014.94
2018-06-04T06:06:16.259Z,1014.94
2018-06-04T06:07:16.522Z,1014.91
2018-06-04T06:08:16.251Z,1014.88
2018-06-04T06:09:16.697Z,1014.86
2018-06-04T06:10:16.353Z,1014.87
2018-06-04T06:11:16.426Z,1014.84
2018-06-04T06:12:16.328Z,1014.85
2018-06-04T06:13:16.453Z,1014.81
2018-06-04T06:14:16.510Z,1014.78
2018-06-04T06:15:16.417Z,1014.75
2018-06-04T06:16:16.241Z,1014.74
2018-06-04T06:17:16.403Z,1014.7
2018-06-04T06:18:47.864Z,1014.71
2018-06-04T06:19:16.410Z,1014.68
2018-06-04T06:20:16.296Z,1014.71
2018-06-04T06:21:16.395Z,1014.69
2018-06-04T06:22:16.409Z,1014.71
2018-06-04T06:23:16.238Z,1014.7
2018-06-04T06:24:16.422Z,1014.71
2018-06-04T06:25:16.359Z,1014.74
2018-06-04T06:26:16.363Z,1014.71
2018-06-04T06:27:16.430Z,1014.71
2018-06-04T06:28:16.287Z,1014.69
2018-06-04T06:29:16.248Z,1014.73
2018-06-04T06:30:16.373Z,1014.72
2018-06-04T06:31:16.276Z,1014.66
2018-06-04T06:32:16.494Z,1014.68
2018-06-04T06:33:16.414Z,1014.7
2018-06-04T06:34:16.187Z,1014.67
2018-06-04T06:35:16.250Z,1014.67
2018-06-04T06:36:16.432Z,1014.68
2018-06-04T06:37:16.223Z,1014.63
2018-06-04T06:38:16.452Z,1014.62
2018-06-04T06:39:16.374Z,1014.6
2018-06-04T06:40:16.383Z,1014.61
2018-06-04T06:41:16.261Z,1014.6
2018-06-04T06:42:16.449Z,1014.59
2018-06-04T06:43:16.453Z,1014.59
2018-06-04T06:44:16.467Z,1014.57
2018-06-04T06:45:16.364Z,1014.54
2018-06-04T06:46:16.188Z,1014.54
2018-06-04T06:47:16.306Z,1014.53
2018-06-04T06:48:16.246Z,1014.56
2018-06-04T06:49:16.352Z,1014.52
2018-06-04T06:50:16.471Z,1014.55
2018-06-04T06:51:16.381Z,1014.51
2018-06-04T06:52:17.654Z,1014.51
2018-06-04T06:53:16.450Z,1014.49
2018-06-04T06:54:16.525Z,1014.47
2018-06-04T06:55:16.336Z,1014.45
2018-06-04T06:56:16.360Z,1014.47
2018-06-04T06:57:16.263Z,1014.45
2018-06-04T06:58:16.251Z,1014.41
2018-06-04T06:59:16.477Z,1014.45
2018-06-04T07:00:16.291Z,1014.41
2018-06-04T07:01:16.311Z,1014.39
2018-06-04T07:02:16.626Z,1014.4
2018-06-04T07:03:16.556Z,1014.44
2018-06-04T07:04:16.431Z,1014.39
2018-06-04T07:05:16.220Z,1014.37
2018-06-04T07:06:16.533Z,1014.4
2018-06-04T07:07:16.326Z,1014.37
2018-06-04T07:08:16.190Z,1014.39
2018-06-04T07:09:16.353Z,1014.37
2018-06-04T07:10:16.244Z,1014.35
2018-06-04T07:11:16.316Z,1014.4
2018-06-04T07:12:16.643Z,1014.39
2018-06-04T07:13:16.350Z,1014.42
2018-06-04T07:14:16.431Z,1014.43
2018-06-04T07:15:16.200Z,1014.46
2018-06-04T07:16:16.618Z,1014.42
2018-06-04T07:17:16.397Z,1014.43
2018-06-04T07:18:16.201Z,1014.43
2018-06-04T07:19:16.230Z,1014.46
2018-06-04T07:20:16.438Z,1014.49
2018-06-04T07:21:16.648Z,1014.47
2018-06-04T07:22:16.370Z,1014.45
2018-06-04T07:23:16.413Z,1014.43
2018-06-04T07:24:16.404Z,1014.45
2018-06-04T07:25:16.389Z,1014.4
2018-06-04T07:26:16.426Z,1014.42
2018-06-04T07:27:16.339Z,1014.38
2018-06-04T07:28:16.209Z,1014.37
2018-06-04T07:29:16.462Z,1014.38
2018-06-04T07:30:16.463Z,1014.39
2018-06-04T07:31:16.319Z,1014.4
2018-06-04T07:32:16.404Z,1014.38
2018-06-04T07:33:16.656Z,1014.38
2018-06-04T07:34:16.455Z,1014.36
2018-06-04T07:35:16.293Z,1014.36
2018-06-04T07:36:16.324Z,1014.36
2018-06-04T07:37:16.461Z,1014.35
2018-06-04T07:38:16.412Z,1014.35
2018-06-04T07:39:16.220Z,1014.32
2018-06-04T07:40:16.299Z,1014.32
2018-06-04T07:41:16.431Z,1014.36
2018-06-04T07:42:16.432Z,1014.34
2018-06-04T07:43:16.235Z,1014.33
2018-06-04T07:44:16.337Z,1014.29
2018-06-04T07:45:16.407Z,1014.27
2018-06-04T07:46:16.368Z,1014.26
2018-06-04T07:47:16.336Z,1014.24
2018-06-04T07:48:16.444Z,1014.22
2018-06-04T07:49:16.437Z,1014.24
2018-06-04T07:50:16.208Z,1014.23
2018-06-04T07:51:16.427Z,1014.22
2018-06-04T07:52:16.346Z,1014.2
2018-06-04T07:53:16.404Z,1014.16
2018-06-04T07:54:16.176Z,1014.23
2018-06-04T07:55:16.413Z,1014.18
2018-06-04T07:56:16.384Z,1014.18
2018-06-04T07:57:16.731Z,1014.17
2018-06-04T07:58:16.308Z,1014.2
2018-06-04T07:59:16.426Z,1014.17
2018-06-04T08:00:16.409Z,1014.14
2018-06-04T08:01:26.268Z,1014.19
2018-06-04T08:02:16.308Z,1014.2
2018-06-04T08:03:16.302Z,1014.18
2018-06-04T08:04:16.477Z,1014.14
2018-06-04T08:05:16.607Z,1014.15
2018-06-04T08:06:16.342Z,1014.18
2018-06-04T08:07:16.276Z,1014.12
2018-06-04T08:08:16.331Z,1014.14
2018-06-04T08:09:16.452Z,1014.11
2018-06-04T08:10:16.611Z,1014.09
2018-06-04T08:11:16.258Z,1014.08
2018-06-04T08:12:16.344Z,1014.06
2018-06-04T08:13:16.412Z,1014.04
2018-06-04T08:14:16.248Z,1014.03
2018-06-04T08:15:16.575Z,1014.03
2018-06-04T08:16:16.205Z,1014.07
2018-06-04T08:17:16.169Z,1014.11
2018-06-04T08:18:16.343Z,1014.08
2018-06-04T08:19:16.452Z,1014.07
2018-06-04T08:20:16.532Z,1014.02
2018-06-04T08:21:16.384Z,1014.02
2018-06-04T08:22:16.273Z,1014.03
2018-06-04T08:23:16.388Z,1013.99
2018-06-04T08:24:16.261Z,1014
2018-06-04T08:25:16.301Z,1013.96
2018-06-04T08:26:16.233Z,1014.02
2018-06-04T08:27:16.262Z,1014
2018-06-04T08:28:16.249Z,1013.99
2018-06-04T08:29:16.358Z,1014.02
2018-06-04T08:30:16.291Z,1014.03
2018-06-04T08:31:16.332Z,1014.03
2018-06-04T08:32:16.420Z,1014.08
2018-06-04T08:33:16.448Z,1014.08
2018-06-04T08:34:16.521Z,1014.04
2018-06-04T08:35:16.256Z,1014.07
2018-06-04T08:36:16.337Z,1014.03
2018-06-04T08:37:16.431Z,1014.04
2018-06-04T08:38:16.696Z,1014.02
2018-06-04T08:39:16.269Z,1014.01
2018-06-04T08:40:16.329Z,1014.01
2018-06-04T08:41:16.315Z,1013.99
2018-06-04T08:42:16.356Z,1014.02
2018-06-04T08:43:16.359Z,1014.03
2018-06-04T08:44:16.422Z,1013.95
2018-06-04T08:45:16.307Z,1014.02
2018-06-04T08:46:16.672Z,1014.06
2018-06-04T08:47:16.366Z,1014.03
2018-06-04T08:48:16.255Z,1014.04
2018-06-04T08:49:16.426Z,1014.03
2018-06-04T08:50:16.395Z,1014.05
2018-06-04T08:51:16.302Z,1014.03
2018-06-04T08:52:16.198Z,1013.99
2018-06-04T08:53:16.411Z,1014.01
2018-06-04T08:54:16.270Z,1013.97
2018-06-04T08:55:16.400Z,1014.04
2018-06-04T08:57:16.246Z,1013.97
2018-06-04T08:58:16.476Z,1014.02
2018-06-04T08:59:16.201Z,1013.98
2018-06-04T09:00:16.352Z,1014.03
2018-06-04T09:01:16.334Z,1014
2018-06-04T09:02:16.395Z,1013.94
2018-06-04T09:03:16.216Z,1013.96
2018-06-04T09:04:16.215Z,1014.02
2018-06-04T09:05:16.245Z,1013.99
2018-06-04T09:06:16.340Z,1013.99
2018-06-04T09:07:16.187Z,1013.98
2018-06-04T09:08:16.285Z,1013.99
2018-06-04T09:09:16.245Z,1013.93
2018-06-04T09:10:16.304Z,1013.99
2018-06-04T09:11:16.318Z,1013.92
2018-06-04T09:12:16.356Z,1013.92
2018-06-04T09:13:16.373Z,1013.89
2018-06-04T09:14:16.255Z,1013.93
2018-06-04T09:15:16.377Z,1013.91
2018-06-04T09:16:16.373Z,1013.92
2018-06-04T09:17:16.502Z,1013.91
2018-06-04T09:18:16.452Z,1013.92
2018-06-04T09:19:16.191Z,1013.94
2018-06-04T09:20:16.328Z,1013.93
2018-06-04T09:21:16.408Z,1013.93
2018-06-04T09:22:16.373Z,1013.87
2018-06-04T09:23:16.187Z,1013.88
2018-06-04T09:24:16.427Z,1013.87
2018-06-04T09:25:16.334Z,1013.85
2018-06-04T09:26:16.444Z,1013.86
2018-06-04T09:27:16.374Z,1013.87
2018-06-04T09:28:16.384Z,1013.83
2018-06-04T09:29:16.370Z,1013.8
2018-06-04T09:30:16.164Z,1013.85
2018-06-04T09:31:16.408Z,1013.84
2018-06-04T09:32:16.593Z,1013.85
2018-06-04T09:33:16.383Z,1013.81
2018-06-04T09:34:16.346Z,1013.79
2018-06-04T09:35:16.491Z,1013.79
2018-06-04T09:36:16.329Z,1013.76
2018-06-04T09:37:16.370Z,1013.78
2018-06-04T09:38:16.368Z,1013.77
2018-06-04T09:39:16.369Z,1013.78
2018-06-04T09:40:16.245Z,1013.76
2018-06-04T09:41:16.164Z,1013.75
2018-06-04T09:42:16.334Z,1013.72
2018-06-04T09:43:34.606Z,1013.81
2018-06-04T09:44:16.337Z,1013.79
2018-06-04T09:45:16.457Z,1013.82
2018-06-04T09:46:16.375Z,1013.78
2018-06-04T09:47:16.295Z,1013.82
2018-06-04T09:48:16.188Z,1013.77
2018-06-04T09:49:16.303Z,1013.8
2018-06-04T09:50:16.303Z,1013.78
2018-06-04T09:51:16.397Z,1013.77
2018-06-04T09:52:16.426Z,1013.77
2018-06-04T09:53:16.324Z,1013.77
2018-06-04T09:54:16.297Z,1013.79
2018-06-04T09:55:16.325Z,1013.77
2018-06-04T09:56:16.392Z,1013.76
2018-06-04T09:57:16.258Z,1013.71
2018-06-04T09:58:16.541Z,1013.75
2018-06-04T09:59:16.313Z,1013.69
2018-06-04T10:00:16.473Z,1013.71
2018-06-04T10:01:16.291Z,1013.76
2018-06-04T10:02:16.422Z,1013.72
2018-06-04T10:03:16.431Z,1013.75
2018-06-04T10:04:16.427Z,1013.74
2018-06-04T10:05:16.380Z,1013.76
2018-06-04T10:06:16.404Z,1013.74
2018-06-04T10:07:16.412Z,1013.75
2018-06-04T10:08:16.185Z,1013.71
2018-06-04T10:09:16.336Z,1013.68
2018-06-04T10:10:16.321Z,1013.7
2018-06-04T10:11:16.419Z,1013.68
2018-06-04T10:12:16.377Z,1013.67
2018-06-04T10:13:16.370Z,1013.65
2018-06-04T10:14:16.505Z,1013.65
2018-06-04T10:15:16.407Z,1013.62
2018-06-04T10:16:16.270Z,1013.65
2018-06-04T10:17:39.622Z,1013.63
2018-06-04T10:18:16.269Z,1013.6
2018-06-04T10:19:16.399Z,1013.61
2018-06-04T10:20:16.483Z,1013.59
2018-06-04T10:21:16.324Z,1013.55
2018-06-04T10:22:16.356Z,1013.53
2018-06-04T10:23:16.387Z,1013.54
2018-06-04T10:24:16.196Z,1013.49
2018-06-04T10:25:16.409Z,1013.56
2018-06-04T10:26:16.267Z,1013.49
2018-06-04T10:27:16.219Z,1013.51
2018-06-04T10:28:16.224Z,1013.49
2018-06-04T10:29:16.451Z,1013.5
2018-06-04T10:30:16.254Z,1013.49
2018-06-04T10:31:16.460Z,1013.51
2018-06-04T10:32:16.387Z,1013.47
2018-06-04T10:33:16.217Z,1013.46
2018-06-04T10:34:16.526Z,1013.42
2018-06-04T10:35:16.392Z,1013.4
2018-06-04T10:36:16.383Z,1013.41
2018-06-04T10:37:16.368Z,1013.42
2018-06-04T10:38:16.254Z,1013.39
2018-06-04T10:39:16.350Z,1013.42
2018-06-04T10:40:16.161Z,1013.39
2018-06-04T10:41:16.317Z,1013.36
2018-06-04T10:42:16.395Z,1013.39
2018-06-04T10:43:16.363Z,1013.36
2018-06-04T10:44:16.254Z,1013.31
2018-06-04T10:45:16.338Z,1013.32
2018-06-04T10:46:16.449Z,1013.29
2018-06-04T10:47:16.272Z,1013.29
2018-06-04T10:48:16.243Z,1013.31
2018-06-04T10:49:16.232Z,1013.27
2018-06-04T10:50:16.388Z,1013.24
2018-06-04T10:51:16.236Z,1013.26
2018-06-04T10:52:16.275Z,1013.22
2018-06-04T10:53:16.271Z,1013.2
2018-06-04T10:54:16.407Z,1013.21
2018-06-04T10:55:16.499Z,1013.2
2018-06-04T10:56:16.371Z,1013.19
2018-06-04T10:57:16.287Z,1013.18
2018-06-04T10:58:16.210Z,1013.18
2018-06-04T10:59:16.447Z,1013.17
2018-06-04T11:00:16.289Z,1013.2
2018-06-04T11:01:16.366Z,1013.17
2018-06-04T11:02:16.438Z,1013.14
2018-06-04T11:03:16.313Z,1013.16
2018-06-04T11:04:16.357Z,1013.16
2018-06-04T11:05:16.520Z,1013.15
2018-06-04T11:06:16.487Z,1013.08
2018-06-04T11:07:16.378Z,1013.12
2018-06-04T11:08:16.233Z,1013.13
2018-06-04T11:09:16.150Z,1013.08
2018-06-04T11:10:16.405Z,1013.11
2018-06-04T11:11:16.336Z,1013.12
2018-06-04T11:12:16.208Z,1013.1
2018-06-04T11:13:16.225Z,1013.07
2018-06-04T11:14:16.355Z,1013.06
2018-06-04T11:15:16.200Z,1013.05
2018-06-04T11:16:16.481Z,1013.03
2018-06-04T11:17:16.282Z,1013.12
2018-06-04T11:18:16.320Z,1013.08
2018-06-04T11:19:16.213Z,1013.07
2018-06-04T11:20:16.234Z,1013.05
2018-06-04T11:21:16.267Z,1013.04
2018-06-04T11:22:16.371Z,1013.08
2018-06-04T11:23:16.192Z,1013.01
2018-06-04T11:24:16.284Z,1013.01
2018-06-04T11:25:16.238Z,1012.97
2018-06-04T11:26:16.388Z,1012.97
2018-06-04T11:27:16.456Z,1012.98
2018-06-04T11:28:16.283Z,1012.95
2018-06-04T11:29:16.199Z,1012.98
2018-06-04T11:30:16.469Z,1012.91
2018-06-04T11:31:16.347Z,1012.88
2018-06-04T11:32:16.293Z,1012.87
2018-06-04T11:33:16.366Z,1012.94
2018-06-04T11:34:16.380Z,1012.92
2018-06-04T11:35:16.355Z,1012.89
2018-06-04T11:36:16.392Z,1012.88
2018-06-04T11:37:16.394Z,1012.9
2018-06-04T11:38:16.160Z,1012.9
2018-06-04T11:39:16.210Z,1012.87
2018-06-04T11:40:16.264Z,1012.89
2018-06-04T11:41:16.304Z,1012.87
2018-06-04T11:42:16.467Z,1012.89
2018-06-04T11:43:16.145Z,1012.89
2018-06-04T11:44:16.623Z,1012.87
2018-06-04T11:45:16.582Z,1012.87
2018-06-04T11:46:16.325Z,1012.83
2018-06-04T11:47:16.151Z,1012.81
2018-06-04T11:48:16.295Z,1012.8
2018-06-04T11:49:16.274Z,1012.8
2018-06-04T11:50:16.368Z,1012.81
2018-06-04T11:51:16.420Z,1012.82
2018-06-04T11:52:16.400Z,1012.86
2018-06-04T11:53:16.165Z,1012.84
2018-06-04T11:54:16.186Z,1012.77
2018-06-04T11:55:16.210Z,1012.77
2018-06-04T11:56:16.429Z,1012.76
2018-06-04T11:57:16.221Z,1012.78
2018-06-04T11:58:16.290Z,1012.75
2018-06-04T11:59:16.482Z,1012.75
2018-06-04T12:00:16.239Z,1012.76
2018-06-04T12:01:16.245Z,1012.79
2018-06-04T12:02:16.303Z,1012.77
2018-06-04T12:03:16.295Z,1012.68
2018-06-04T12:04:16.290Z,1012.73
2018-06-04T12:05:16.381Z,1012.7
2018-06-04T12:06:16.171Z,1012.65
2018-06-04T12:07:16.415Z,1012.67
2018-06-04T12:08:16.415Z,1012.64
2018-06-04T12:09:16.171Z,1012.6
2018-06-04T12:10:16.304Z,1012.63
2018-06-04T12:11:16.425Z,1012.62
2018-06-04T12:12:16.425Z,1012.57
2018-06-04T12:13:16.603Z,1012.64
2018-06-04T12:14:16.423Z,1012.62